Time;durP1;ratioP1;P1;durP2;ratioP2;P2;SDS_P1;SDS_P2;PMS_P1;PMS_P2;Temp;Humidity;BMP_temperature;BMP_pressure;BME280_temperature;BME280_humidity;BME280_pressure;Samples;Min_cycle;Max_cycle;Signal;HPM_P1;HPM_P2
2023/05/03 00:02:01;;;;;;;1.63;0.90;;;;;;;8.29;100.00;102974.47;6089253;23;20563;-75
2023/05/03 00:04:27;;;;;;;4.50;1.00;;;;;;;8.47;100.00;102953.34;6090506;23;20166;-75
2023/05/03 00:06:53;;;;;;;10.60;1.10;;;;;;;6.57;100.00;102710.41;6087820;23;20445;-75
2023/05/03 00:09:18;;;;;;;3.53;1.00;;;;;;;7.23;100.00;102849.84;6091279;23;20433;-76
2023/05/03 00:11:44;;;;;;;1.87;0.90;;;;;;;6.57;100.00;102641.94;6087094;23;20426;-76
2023/05/03 00:14:09;;;;;;;1.80;0.87;;;;;;;6.48;100.00;102712.03;6091507;23;20194;-76
2023/05/03 00:16:35;;;;;;;1.20;0.87;;;;;;;6.64;100.00;102724.09;6090709;23;20178;-76
2023/05/03 00:19:00;;;;;;;1.40;0.90;;;;;;;7.37;100.00;102816.66;6092654;23;20641;-76
2023/05/03 00:21:27;;;;;;;2.37;1.10;;;;;;;8.46;100.00;102962.38;6089314;23;20496;-77
2023/05/03 00:23:52;;;;;;;1.97;0.90;;;;;;;5.64;100.00;102601.59;6091221;23;20617;-75
2023/05/03 00:26:18;;;;;;;2.77;1.10;;;;;;;5.87;100.00;102581.97;6091463;23;20386;-76
2023/05/03 00:28:43;;;;;;;1.90;0.80;;;;;;;6.23;100.00;102640.38;6092727;23;20151;-75
2023/05/03 00:31:10;;;;;;;1.90;0.93;;;;;;;6.60;100.00;102714.66;6091703;23;20150;-75
2023/05/03 00:33:36;;;;;;;2.73;1.27;;;;;;;6.85;100.00;102798.78;6092719;23;20162;-75
2023/05/03 00:36:09;;;;;;;1.90;0.90;;;;;;;7.03;100.00;102757.28;6090963;23;20375;-74
2023/05/03 00:38:35;;;;;;;1.40;1.00;;;;;;;6.67;100.00;102641.16;6090714;23;20907;-76
2023/05/03 00:41:01;;;;;;;1.30;0.80;;;;;;;7.06;100.00;102767.69;6089369;23;20387;-76
2023/05/03 00:43:27;;;;;;;1.23;0.90;;;;;;;7.02;100.00;102776.91;6089778;23;20404;-76
2023/05/03 00:45:53;;;;;;;2.83;0.87;;;;;;;6.55;100.00;102705.19;6090965;23;20478;-75
2023/05/03 00:48:19;;;;;;;3.57;1.07;;;;;;;8.28;100.00;103004.88;6090613;23;20158;-76
2023/05/03 00:50:46;;;;;;;1.60;0.80;;;;;;;6.79;100.00;102744.13;6090085;23;20488;-76
2023/05/03 00:53:12;;;;;;;3.93;0.80;;;;;;;7.16;100.00;102775.75;6087839;23;20564;-77
2023/05/03 00:55:39;;;;;;;1.70;0.90;;;;;;;7.83;100.00;102908.91;6089067;23;20382;-77
2023/05/03 00:58:05;;;;;;;1.40;0.90;;;;;;;7.38;100.00;102820.19;6091059;23;20425;-75
2023/05/03 01:00:31;;;;;;;2.13;0.80;;;;;;;6.50;100.00;102598.09;6091128;23;20383;-76
2023/05/03 01:02:57;;;;;;;3.17;1.00;;;;;;;7.09;100.00;102775.44;6089611;23;20522;-75
2023/05/03 01:05:22;;;;;;;3.47;1.00;;;;;;;6.86;100.00;102769.34;6090329;23;20375;-75
2023/05/03 01:08:09;;;;;;;1.00;0.87;;;;;;;8.35;100.00;102984.63;6089676;23;20250;-75
2023/05/03 01:10:45;;;;;;;2.40;0.93;;;;;;;6.67;100.00;102699.81;6089281;23;20574;-75
2023/05/03 01:13:23;;;;;;;1.73;0.77;;;;;;;6.44;100.00;102593.28;6089514;23;20497;-75
2023/05/03 01:15:55;;;;;;;2.37;1.00;;;;;;;7.57;100.00;102812.28;6089627;23;20442;-77
2023/05/03 01:18:31;;;;;;;5.07;1.00;;;;;;;6.43;100.00;102596.94;6088758;23;20909;-75
2023/05/03 01:21:00;;;;;;;6.50;1.00;;;;;;;6.62;100.00;102699.34;6090659;23;20374;-76
2023/05/03 01:23:39;;;;;;;3.63;1.20;;;;;;;7.78;100.00;102900.44;6087725;23;20838;-75
2023/05/03 01:26:21;;;;;;;1.80;0.73;;;;;;;6.82;100.00;102735.03;6089761;23;20720;-75
2023/05/03 01:28:47;;;;;;;2.03;0.80;;;;;;;6.49;100.00;102656.88;6090106;23;20418;-75
2023/05/03 01:31:40;;;;;;;2.50;0.90;;;;;;;8.26;100.00;102964.03;6089235;23;20383;-76
2023/05/03 01:34:22;;;;;;;1.00;0.70;;;;;;;8.01;100.00;102961.75;6089170;23;20186;-75
2023/05/03 01:36:48;;;;;;;2.60;0.90;;;;;;;6.45;100.00;102708.75;6088583;23;20377;-77
2023/05/03 01:39:23;;;;;;;2.00;0.80;;;;;;;6.62;100.00;102763.34;6089375;23;20504;-76
2023/05/03 01:41:50;;;;;;;2.13;0.90;;;;;;;6.73;100.00;102765.97;6089155;23;20400;-76
2023/05/03 01:44:16;;;;;;;2.80;1.13;;;;;;;5.77;100.00;102617.44;6090388;23;20413;-76
2023/05/03 01:46:43;;;;;;;1.73;0.80;;;;;;;6.88;100.00;102831.41;6090065;23;20434;-75
2023/05/03 01:49:09;;;;;;;2.03;1.10;;;;;;;6.08;100.00;102661.97;6087690;23;20390;-75
2023/05/03 01:51:35;;;;;;;2.30;1.30;;;;;;;6.42;100.00;102768.50;6090269;23;20403;-75
2023/05/03 01:54:00;;;;;;;1.97;1.07;;;;;;;5.69;100.00;102676.63;6089585;23;20154;-76
2023/05/03 01:56:25;;;;;;;2.67;0.90;;;;;;;5.19;100.00;102580.34;6088811;23;20237;-77
2023/05/03 01:58:51;;;;;;;6.13;1.20;;;;;;;7.82;100.00;102957.97;6089190;23;20174;-76
2023/05/03 02:01:16;;;;;;;3.30;0.90;;;;;;;6.42;100.00;102771.19;6089785;23;20151;-76
2023/05/03 02:03:42;;;;;;;3.03;0.90;;;;;;;5.44;100.00;102619.19;6090414;23;20154;-77
2023/05/03 02:06:07;;;;;;;1.27;0.70;;;;;;;5.71;100.00;102753.75;6088975;23;20159;-75
2023/05/03 02:08:33;;;;;;;3.27;1.23;;;;;;;5.80;100.00;102766.31;6084902;23;20147;-76
2023/05/03 02:10:58;;;;;;;3.73;1.00;;;;;;;6.69;100.00;102813.41;6089662;23;20161;-76
2023/05/03 02:13:24;;;;;;;3.20;1.10;;;;;;;6.39;100.00;102703.91;6087421;23;20182;-77
2023/05/03 02:15:49;;;;;;;1.07;0.80;;;;;;;6.60;100.00;102757.31;6090818;23;20182;-76
2023/05/03 02:18:15;;;;;;;2.00;0.93;;;;;;;6.65;100.00;102784.44;6089418;23;20572;-74
2023/05/03 02:20:44;;;;;;;0.83;0.77;;;;;;;5.73;100.00;102670.13;6090121;23;20586;-76
2023/05/03 02:23:09;;;;;;;1.60;1.00;;;;;;;5.93;100.00;102649.00;6091697;23;20182;-75
2023/05/03 02:25:35;;;;;;;2.80;0.90;;;;;;;6.22;100.00;102691.97;6090982;23;20379;-75
2023/05/03 02:28:00;;;;;;;1.30;0.93;;;;;;;7.13;100.00;102840.06;6092002;23;20150;-76
2023/05/03 02:30:26;;;;;;;2.03;0.90;;;;;;;6.90;100.00;102765.44;6092113;23;20543;-75
2023/05/03 02:32:51;;;;;;;1.97;0.90;;;;;;;6.19;100.00;102681.56;6090357;23;20910;-75
2023/05/03 02:35:17;;;;;;;3.20;1.23;;;;;;;6.98;100.00;102807.50;6089144;23;20162;-76
2023/05/03 02:37:42;;;;;;;2.50;1.20;;;;;;;6.13;100.00;102664.25;6090969;23;20565;-76
2023/05/03 02:40:11;;;;;;;1.60;1.00;;;;;;;6.27;100.00;102608.00;6089431;23;20529;-75
2023/05/03 02:42:36;;;;;;;2.80;1.00;;;;;;;5.91;100.00;102608.34;6088119;23;20185;-75
2023/05/03 02:45:02;;;;;;;2.40;1.17;;;;;;;6.60;100.00;102768.81;6089711;23;20453;-75
2023/05/03 02:47:28;;;;;;;1.40;0.80;;;;;;;7.52;100.00;102916.00;6090535;23;20158;-75
2023/05/03 02:49:53;;;;;;;3.33;1.57;;;;;;;6.08;100.00;102597.19;6087355;23;20192;-75
2023/05/03 02:52:18;;;;;;;2.27;1.00;;;;;;;6.98;100.00;102772.81;6087619;23;20894;-75
2023/05/03 02:54:45;;;;;;;4.80;1.10;;;;;;;6.96;100.00;102780.09;6087790;23;20150;-77
2023/05/03 02:57:11;;;;;;;1.07;0.77;;;;;;;6.88;100.00;102779.88;6087675;23;20151;-76
2023/05/03 02:59:37;;;;;;;3.87;1.20;;;;;;;7.74;100.00;102869.63;6088880;23;20378;-75
2023/05/03 03:02:02;;;;;;;1.97;1.00;;;;;;;6.41;100.00;102628.19;6088807;23;20517;-76
2023/05/03 03:04:28;;;;;;;3.27;1.13;;;;;;;7.13;100.00;102774.19;6090550;23;20155;-76
2023/05/03 03:06:53;;;;;;;2.03;1.00;;;;;;;6.59;100.00;102710.28;6088282;23;20624;-75
2023/05/03 03:09:19;;;;;;;2.23;1.17;;;;;;;5.68;100.00;102567.63;6088003;23;20158;-75
2023/05/03 03:11:45;;;;;;;1.23;1.13;;;;;;;5.78;100.00;102563.22;6088960;23;20182;-74
2023/05/03 03:14:10;;;;;;;2.30;1.03;;;;;;;7.69;100.00;102879.84;6089286;23;20147;-75
2023/05/03 03:16:36;;;;;;;2.03;1.10;;;;;;;6.02;100.00;102576.41;6088106;23;20382;-76
2023/05/03 03:19:01;;;;;;;2.07;0.77;;;;;;;7.35;100.00;102807.09;6089104;23;20167;-76
2023/05/03 03:21:27;;;;;;;2.73;1.00;;;;;;;6.83;100.00;102761.59;6088105;23;20161;-76
2023/05/03 03:23:53;;;;;;;2.67;0.80;;;;;;;6.01;100.00;102609.31;6088302;23;20181;-75
2023/05/03 03:26:18;;;;;;;3.03;1.07;;;;;;;8.28;100.00;102946.06;6087364;23;20750;-76
2023/05/03 03:28:44;;;;;;;1.60;1.00;;;;;;;6.34;100.00;102734.47;6089756;23;20147;-76
2023/05/03 03:31:10;;;;;;;3.60;0.90;;;;;;;6.76;100.00;102729.22;6088907;23;20161;-76
2023/05/03 03:33:35;;;;;;;1.63;1.00;;;;;;;6.67;100.00;102722.00;6088527;23;20158;-75
2023/05/03 03:36:01;;;;;;;1.53;0.90;;;;;;;5.88;100.00;102537.53;6089688;23;20568;-75
2023/05/03 03:38:26;;;;;;;1.60;0.80;;;;;;;5.76;100.00;102591.81;6090837;23;20625;-75
2023/05/03 03:40:53;;;;;;;1.73;1.00;;;;;;;7.09;100.00;102785.22;6090712;23;20155;-75
2023/05/03 03:43:19;;;;;;;2.27;0.80;;;;;;;7.01;100.00;102789.41;6090044;23;20174;-75
2023/05/03 03:45:44;;;;;;;1.20;0.80;;;;;;;6.65;100.00;102737.28;6090066;23;20870;-75
2023/05/03 03:48:10;;;;;;;2.10;1.10;;;;;;;5.87;100.00;102627.25;6091795;23;20375;-75
2023/05/03 03:50:36;;;;;;;3.43;1.30;;;;;;;6.69;100.00;102785.88;6092807;23;20161;-75
2023/05/03 03:53:01;;;;;;;2.00;0.90;;;;;;;6.62;100.00;102745.53;6091150;23;20209;-75
2023/05/03 03:55:26;;;;;;;2.37;1.03;;;;;;;5.77;100.00;102591.66;6091726;23;20915;-75
2023/05/03 03:57:52;;;;;;;4.73;1.00;;;;;;;5.93;100.00;102646.34;6090408;23;20175;-76
2023/05/03 04:00:17;;;;;;;1.87;1.17;;;;;;;5.81;100.00;102645.50;6091071;23;20872;-76
2023/05/03 04:02:43;;;;;;;3.70;1.07;;;;;;;5.46;100.00;102587.97;6089720;23;20954;-76
2023/05/03 04:05:08;;;;;;;1.97;1.00;;;;;;;5.39;100.00;102621.34;6091401;23;20181;-75
2023/05/03 04:07:34;;;;;;;2.00;1.00;;;;;;;5.69;100.00;102687.28;6090828;23;20614;-76
2023/05/03 04:09:59;;;;;;;0.93;0.80;;;;;;;6.10;100.00;102718.66;6091810;23;20425;-75
2023/05/03 04:12:25;;;;;;;2.30;0.93;;;;;;;6.07;100.00;102699.38;6091822;23;20186;-76
2023/05/03 04:14:50;;;;;;;2.20;0.80;;;;;;;6.56;100.00;102730.03;6092212;23;20163;-76
2023/05/03 04:17:16;;;;;;;2.07;0.73;;;;;;;6.07;100.00;102702.03;6091944;23;20182;-75
2023/05/03 04:19:42;;;;;;;2.63;1.17;;;;;;;5.79;100.00;102698.06;6091046;23;20234;-76
2023/05/03 04:22:08;;;;;;;2.10;0.90;;;;;;;6.42;100.00;102786.28;6091205;23;20321;-75
2023/05/03 04:24:34;;;;;;;4.90;0.77;;;;;;;5.59;100.00;102599.31;6091431;23;20795;-76
2023/05/03 04:27:03;;;;;;;2.27;0.87;;;;;;;5.63;100.00;102706.41;6091404;23;20182;-76
2023/05/03 04:29:28;;;;;;;1.00;0.90;;;;;;;6.52;100.00;102829.91;6088655;23;20374;-75
2023/05/03 04:31:54;;;;;;;4.57;1.40;;;;;;;6.09;100.00;102681.47;6090243;23;20402;-76
2023/05/03 04:34:20;;;;;;;1.87;0.90;;;;;;;6.02;100.00;102709.59;6090972;23;20158;-76
2023/05/03 04:36:46;;;;;;;2.70;1.10;;;;;;;7.29;100.00;102915.25;6091162;23;20166;-76
2023/05/03 04:39:12;;;;;;;3.60;1.60;;;;;;;6.68;100.00;102865.06;6090583;23;20414;-75
2023/05/03 04:41:39;;;;;;;5.13;2.47;;;;;;;6.90;100.00;102816.13;6090883;23;20182;-76
2023/05/03 04:44:05;;;;;;;3.50;1.70;;;;;;;5.93;100.00;102649.91;6089205;23;20159;-76
2023/05/03 04:46:31;;;;;;;3.17;1.50;;;;;;;7.74;100.00;102941.75;6089476;23;20510;-76
2023/05/03 04:48:56;;;;;;;2.50;1.37;;;;;;;6.26;100.00;102720.06;6088889;23;20426;-77
2023/05/03 04:51:22;;;;;;;2.73;1.10;;;;;;;6.78;100.00;102787.78;6090216;23;20163;-76
2023/05/03 04:53:48;;;;;;;2.30;1.07;;;;;;;8.18;100.00;103041.38;6089519;23;20242;-75
2023/05/03 04:56:14;;;;;;;2.53;1.33;;;;;;;6.11;100.00;102696.34;6090570;23;20406;-76
2023/05/03 04:58:39;;;;;;;1.43;1.00;;;;;;;7.31;100.00;102885.72;6089201;23;20183;-77
2023/05/03 05:01:05;;;;;;;4.73;1.40;;;;;;;7.77;100.00;102967.34;6089279;23;20598;-79
2023/05/03 05:03:31;;;;;;;3.07;1.07;;;;;;;7.50;100.00;102855.69;6091095;23;20175;-77
2023/05/03 05:05:57;;;;;;;4.30;1.10;;;;;;;6.96;100.00;102825.44;6089838;23;20837;-75
2023/05/03 05:08:23;;;;;;;4.07;1.00;;;;;;;6.18;100.00;102703.84;6089282;23;20150;-75
2023/05/03 05:10:48;;;;;;;1.93;1.10;;;;;;;7.01;100.00;102781.41;6090023;23;20209;-75
2023/05/03 05:13:14;;;;;;;1.60;0.93;;;;;;;6.21;100.00;102664.47;6089571;23;20193;-75
2023/05/03 05:15:40;;;;;;;1.80;1.10;;;;;;;6.73;100.00;102776.66;6087851;23;20158;-76
2023/05/03 05:18:05;;;;;;;1.10;1.00;;;;;;;8.20;100.00;103036.75;6089670;23;20756;-75
2023/05/03 05:20:31;;;;;;;4.37;1.03;;;;;;;7.19;100.00;102839.56;6091178;23;20241;-75
2023/05/03 05:22:56;;;;;;;2.00;1.23;;;;;;;6.88;100.00;102817.22;6092571;23;20178;-76
2023/05/03 05:25:22;;;;;;;3.37;1.30;;;;;;;6.16;100.00;102689.81;6091618;23;20161;-75
2023/05/03 05:27:47;;;;;;;7.67;1.00;;;;;;;7.14;100.00;102881.78;6093274;23;20174;-76
2023/05/03 05:30:13;;;;;;;1.67;1.20;;;;;;;6.02;100.00;102670.47;6091000;23;20241;-75
2023/05/03 05:32:38;;;;;;;1.87;0.90;;;;;;;7.35;100.00;102863.16;6091946;23;20170;-74
2023/05/03 05:35:04;;;;;;;1.17;0.90;;;;;;;6.74;100.00;102731.19;6091238;23;20653;-75
2023/05/03 05:37:30;;;;;;;1.90;1.00;;;;;;;7.49;100.00;102868.16;6093254;23;20242;-75
2023/05/03 05:39:55;;;;;;;2.60;0.90;;;;;;;8.40;100.00;103066.34;6092824;23;20383;-72
2023/05/03 05:42:21;;;;;;;2.40;1.10;;;;;;;7.23;100.00;102827.63;6091518;23;20174;-75
2023/05/03 05:44:46;;;;;;;2.30;1.00;;;;;;;7.19;100.00;102844.88;6090468;23;20257;-75
2023/05/03 05:47:12;;;;;;;2.30;1.00;;;;;;;7.43;100.00;102869.56;6089437;23;20168;-75
2023/05/03 05:49:37;;;;;;;4.47;0.90;;;;;;;7.54;100.00;102835.75;6086832;23;20214;-76
2023/05/03 05:52:03;;;;;;;3.33;0.77;;;;;;;6.84;100.00;102688.59;6089253;23;20179;-75
2023/05/03 05:54:29;;;;;;;2.80;1.20;;;;;;;6.63;100.00;102763.25;6090078;23;20150;-76
2023/05/03 05:56:54;;;;;;;3.30;0.90;;;;;;;7.78;100.00;102943.19;6091750;23;20181;-77
2023/05/03 05:59:20;;;;;;;2.03;1.10;;;;;;;7.74;100.00;102885.66;6090509;23;20553;-76
2023/05/03 06:01:45;;;;;;;1.67;0.83;;;;;;;7.33;100.00;102863.28;6091245;23;20184;-75
2023/05/03 06:04:14;;;;;;;3.00;0.87;;;;;;;6.73;100.00;102736.66;6090845;23;20158;-75
2023/05/03 06:06:40;;;;;;;2.50;0.90;;;;;;;6.42;100.00;102679.66;6090127;23;20155;-74
2023/05/03 06:09:07;;;;;;;1.20;0.60;;;;;;;7.49;100.00;102862.81;6090903;23;20442;-75
2023/05/03 06:14:08;;;;;;;3.23;0.90;;;;;;;7.99;100.00;102920.97;6084916;23;20414;-74
2023/05/03 06:16:35;;;;;;;5.00;0.90;;;;;;;8.39;100.00;102947.84;6089581;23;20387;-74
2023/05/03 06:19:00;;;;;;;2.30;0.80;;;;;;;7.86;100.00;102854.38;6090997;23;20425;-74
2023/05/03 06:21:26;;;;;;;2.77;0.90;;;;;;;7.17;100.00;102785.44;6090796;23;20725;-74
2023/05/03 06:23:51;;;;;;;2.33;1.17;;;;;;;7.62;100.00;102833.28;6091011;23;20174;-74
2023/05/03 06:26:17;;;;;;;2.70;1.00;;;;;;;7.50;100.00;102834.31;6092165;23;20155;-74
2023/05/03 06:28:44;;;;;;;2.50;1.10;;;;;;;7.95;100.00;102847.38;6089678;23;20534;-74
2023/05/03 06:31:10;;;;;;;2.20;0.80;;;;;;;8.28;100.00;102931.84;6091298;23;20504;-74
2023/05/03 06:33:35;;;;;;;4.90;1.10;;;;;;;8.42;100.00;102960.06;6089677;23;20501;-74
2023/05/03 06:36:01;;;;;;;1.63;1.03;;;;;;;9.15;100.00;103043.78;6090466;23;20470;-74
2023/05/03 06:38:27;;;;;;;2.47;0.90;;;;;;;8.77;100.00;102975.75;6091473;23;20210;-74
2023/05/03 06:40:53;;;;;;;2.60;0.80;;;;;;;8.35;100.00;102944.53;6090116;23;20190;-74
2023/05/03 06:43:19;;;;;;;1.30;0.80;;;;;;;8.88;100.00;103039.88;6091347;23;20409;-74
2023/05/03 06:45:46;;;;;;;1.73;0.80;;;;;;;9.35;100.00;103058.94;6092244;23;20215;-74
2023/05/03 06:48:11;;;;;;;1.33;0.80;;;;;;;8.61;100.00;102984.25;6088280;23;20390;-74
2023/05/03 06:50:38;;;;;;;3.77;0.80;;;;;;;8.80;100.00;102992.38;6090672;23;20393;-74
2023/05/03 06:53:04;;;;;;;4.63;0.80;;;;;;;8.64;100.00;102973.28;6090479;23;20647;-74
2023/05/03 06:55:31;;;;;;;1.90;0.80;;;;;;;8.47;100.00;102964.03;6089665;23;20399;-74
2023/05/03 06:57:57;;;;;;;2.83;0.77;;;;;;;8.54;100.00;102933.13;6091404;23;20709;-74
2023/05/03 07:00:24;;;;;;;1.67;0.83;;;;;;;9.36;100.00;103055.28;6092268;23;20438;-74
2023/05/03 07:02:50;;;;;;;3.17;0.80;;;;;;;8.85;100.00;102956.31;6090289;23;20190;-74
2023/05/03 07:05:16;;;;;;;3.37;1.07;;;;;;;9.34;100.00;103062.59;6088280;23;20469;-74
2023/05/03 07:07:41;;;;;;;1.97;1.00;;;;;;;9.25;100.00;103053.53;6091396;23;20158;-74
2023/05/03 07:10:07;;;;;;;3.23;0.90;;;;;;;8.73;100.00;102988.53;6090726;23;20230;-75
2023/05/03 07:12:32;;;;;;;3.80;0.60;;;;;;;8.60;100.00;102954.00;6094154;23;20566;-74
2023/05/03 07:14:58;;;;;;;2.73;1.00;;;;;;;8.96;100.00;102985.66;6092253;23;20162;-74
2023/05/03 07:17:24;;;;;;;1.53;0.77;;;;;;;8.81;100.00;103012.78;6089593;23;20233;-74
2023/05/03 07:19:50;;;;;;;1.30;0.70;;;;;;;9.43;100.00;103060.91;6084582;23;20158;-72
2023/05/03 07:22:16;;;;;;;1.37;0.70;;;;;;;8.53;100.00;102941.28;6086655;23;20739;-77
2023/05/03 07:24:42;;;;;;;1.27;0.80;;;;;;;8.81;100.00;102951.25;6103625;23;20390;-80
2023/05/03 07:27:08;;;;;;;2.00;0.70;;;;;;;8.91;100.00;102967.34;6112415;23;21193;-80
2023/05/03 07:29:34;;;;;;;1.30;0.70;;;;;;;9.23;100.00;103026.06;6099001;23;20409;-77
2023/05/03 07:32:00;;;;;;;2.40;0.80;;;;;;;9.43;100.00;103060.91;6096957;23;20414;-78
2023/05/03 07:34:25;;;;;;;0.80;0.63;;;;;;;9.76;100.00;103069.59;6105866;23;20432;-77
2023/05/03 07:36:56;;;;;;;2.10;1.10;;;;;;;9.54;100.00;103065.31;6103732;23;20231;-83
2023/05/03 07:39:21;;;;;;;1.40;0.70;;;;;;;9.35;100.00;103004.53;6108604;23;20533;-76
2023/05/03 07:41:47;;;;;;;2.20;0.80;;;;;;;9.74;100.00;103057.19;6095390;23;20527;-79
2023/05/03 07:44:12;;;;;;;4.93;1.10;;;;;;;9.77;100.00;103056.06;6095739;23;20158;-79
2023/05/03 07:46:38;;;;;;;3.97;1.20;;;;;;;9.78;100.00;103063.13;6101245;23;20173;-84
2023/05/03 07:49:04;;;;;;;3.13;0.90;;;;;;;9.26;100.00;103001.69;6094051;23;20590;-75
2023/05/03 07:51:34;;;;;;;3.07;1.53;;;;;;;9.77;100.00;103058.72;6094407;23;20155;-75
2023/05/03 07:54:00;;;;;;;1.30;0.70;;;;;;;9.36;100.00;102992.81;6099453;23;20450;-78
2023/05/03 07:56:27;;;;;;;3.20;1.00;;;;;;;9.56;100.00;103047.28;6103120;23;20362;-79
2023/05/03 07:58:52;;;;;;;1.63;1.00;;;;;;;9.76;100.00;103059.72;6110326;23;20177;-76
2023/05/03 08:01:20;;;;;;;1.40;0.90;;;;;;;9.58;100.00;103083.69;6116053;23;20391;-80
2023/05/03 08:03:49;;;;;;;1.17;0.80;;;;;;;8.58;100.00;102899.75;6103787;23;20174;-78
2023/05/03 08:06:17;;;;;;;3.07;1.00;;;;;;;9.29;100.00;103032.72;6106214;23;20371;-67
2023/05/03 08:08:43;;;;;;;3.27;1.03;;;;;;;9.40;100.00;103074.59;6061257;23;20380;-67
2023/05/03 08:11:09;;;;;;;2.57;0.93;;;;;;;9.77;100.00;103069.44;6063044;23;20794;-67
2023/05/03 08:13:36;;;;;;;5.87;1.20;;;;;;;9.44;100.00;103062.63;6063380;23;20371;-67
2023/05/03 08:16:01;;;;;;;1.50;0.90;;;;;;;9.44;100.00;103062.63;6061142;23;20475;-67
2023/05/03 08:18:27;;;;;;;5.17;0.90;;;;;;;9.57;100.00;103083.81;6062834;23;20423;-67
2023/05/03 08:20:52;;;;;;;1.50;0.83;;;;;;;9.68;100.00;103084.53;6061431;23;20554;-67
2023/05/03 08:23:18;;;;;;;1.73;0.90;;;;;;;9.85;100.00;103079.50;6063004;23;20165;-67
2023/05/03 08:25:44;;;;;;;3.53;1.00;;;;;;;9.60;100.00;103056.72;6064239;23;20201;-67
2023/05/03 08:28:10;;;;;;;3.90;1.13;;;;;;;9.84;100.00;103078.66;6061559;23;20199;-67
2023/05/03 08:30:36;;;;;;;0.93;0.70;;;;;;;9.96;100.00;103082.88;6062176;23;20161;-67
2023/05/03 08:33:01;;;;;;;6.40;0.80;;;;;;;9.96;100.00;103057.91;6063673;23;20404;-68
2023/05/03 08:35:27;;;;;;;5.53;0.70;;;;;;;9.80;100.00;103071.84;6061970;23;20175;-67
2023/05/03 08:37:52;;;;;;;4.67;0.87;;;;;;;9.77;100.00;103072.13;6062007;23;20182;-67
2023/05/03 08:40:21;;;;;;;1.10;0.70;;;;;;;10.06;100.00;103065.94;6062872;23;20159;-69
2023/05/03 08:42:48;;;;;;;1.83;0.90;;;;;;;9.70;100.00;103046.88;6062258;23;20162;-67
2023/05/03 08:45:15;;;;;;;3.20;0.90;;;;;;;9.82;100.00;103055.66;6061826;23;20946;-67
2023/05/03 08:47:43;;;;;;;3.80;0.90;;;;;;;10.23;100.00;103059.88;6063196;23;20372;-67
2023/05/03 08:50:10;;;;;;;2.17;0.70;;;;;;;10.24;100.00;103034.78;6060392;23;20376;-68
2023/05/03 08:52:38;;;;;;;1.77;0.80;;;;;;;10.06;100.00;103057.91;6066533;23;20843;-68
2023/05/03 08:55:03;;;;;;;1.73;0.80;;;;;;;9.96;100.00;103023.91;6066038;23;20403;-67
2023/05/03 08:57:29;;;;;;;1.10;0.80;;;;;;;10.05;100.00;103040.13;6063220;23;20388;-67
2023/05/03 08:59:59;;;;;;;1.10;0.80;;;;;;;9.99;100.00;103038.88;6059719;23;20177;-67
2023/05/03 09:02:26;;;;;;;4.07;0.90;;;;;;;10.21;100.00;103048.44;6063438;23;20151;-65
2023/05/03 09:04:51;;;;;;;2.40;0.90;;;;;;;10.29;100.00;103053.97;6062254;23;20415;-67
2023/05/03 09:07:19;;;;;;;3.20;1.00;;;;;;;10.25;100.00;103025.72;6061107;23;20799;-67
2023/05/03 09:09:45;;;;;;;5.23;1.43;;;;;;;10.21;100.00;103037.72;6062496;23;20734;-68
2023/05/03 09:12:10;;;;;;;6.20;2.40;;;;;;;10.13;100.00;103048.31;6061897;23;20466;-67
2023/05/03 09:14:44;;;;;;;4.60;1.30;;;;;;;10.30;100.00;103066.41;6060149;23;20411;-67
2023/05/03 09:17:15;;;;;;;2.90;1.20;;;;;;;10.14;100.00;103048.16;6061394;23;20152;-68
2023/05/03 09:19:57;;;;;;;2.50;0.93;;;;;;;10.27;100.00;103060.47;6063108;23;20478;-67
2023/05/03 09:22:26;;;;;;;3.10;0.90;;;;;;;10.34;100.00;103064.28;6059226;23;20891;-67
2023/05/03 09:24:54;;;;;;;1.83;0.80;;;;;;;10.15;100.00;103060.59;6062546;23;20430;-67
2023/05/03 09:27:20;;;;;;;2.87;1.13;;;;;;;10.32;100.00;103058.22;6056410;23;20382;-67
2023/05/03 09:29:46;;;;;;;1.60;1.00;;;;;;;10.35;100.00;103074.00;6059838;23;20371;-68
2023/05/03 09:32:12;;;;;;;16.87;2.03;;;;;;;10.37;100.00;103072.03;6062344;23;20379;-67
2023/05/03 09:34:37;;;;;;;12.63;1.20;;;;;;;9.93;100.00;102992.03;6060489;23;21015;-68
2023/05/03 09:37:03;;;;;;;1.53;0.80;;;;;;;10.46;100.00;103071.19;6056006;23;20155;-68
2023/05/03 09:39:28;;;;;;;6.13;1.00;;;;;;;10.53;100.00;103072.31;6059530;23;20269;-67
2023/05/03 09:41:55;;;;;;;4.00;1.10;;;;;;;10.38;100.00;103068.34;6059892;23;20183;-68
2023/05/03 09:44:40;;;;;;;3.10;1.10;;;;;;;10.47;100.00;103061.28;6062544;23;20181;-67
2023/05/03 09:47:06;;;;;;;4.23;1.00;;;;;;;10.45;100.00;103045.34;6062227;23;20899;-67
2023/05/03 09:49:33;;;;;;;2.63;0.80;;;;;;;10.37;100.00;103043.38;6059017;23;20398;-67
2023/05/03 09:52:00;;;;;;;4.33;1.20;;;;;;;10.51;100.00;103054.66;6056270;23;20399;-69
2023/05/03 09:54:25;;;;;;;1.90;0.90;;;;;;;10.45;100.00;103063.28;6060816;23;20396;-68
2023/05/03 09:56:54;;;;;;;4.33;1.00;;;;;;;10.15;100.00;103047.19;6061511;23;20391;-68
2023/05/03 09:59:19;;;;;;;4.90;1.10;;;;;;;10.26;100.00;103058.75;6057498;23;20186;-68
2023/05/03 10:01:46;;;;;;;1.53;0.70;;;;;;;10.13;100.00;103059.06;6058953;23;20388;-68
2023/05/03 10:04:16;;;;;;;1.43;0.80;;;;;;;10.19;100.00;103026.28;6060052;23;20625;-69
2023/05/03 10:06:44;;;;;;;4.00;1.00;;;;;;;10.77;100.00;103061.09;6059952;23;20455;-68
2023/05/03 10:09:19;;;;;;;1.90;0.73;;;;;;;10.28;100.00;103060.34;6060618;23;20360;-68
2023/05/03 10:11:52;;;;;;;2.10;0.80;;;;;;;10.36;100.00;103063.16;6062425;23;20379;-68
2023/05/03 10:14:21;;;;;;;2.73;0.83;;;;;;;10.61;100.00;103056.31;6063720;23;20391;-68
2023/05/03 10:16:49;;;;;;;2.37;0.97;;;;;;;10.84;100.00;103055.97;6060541;23;20486;-67
2023/05/03 10:19:22;;;;;;;3.90;1.10;;;;;;;10.69;100.00;103036.81;6063512;23;20427;-68
2023/05/03 10:22:04;;;;;;;1.90;0.90;;;;;;;10.65;100.00;103059.56;6060416;23;20376;-67
2023/05/03 10:24:30;;;;;;;4.77;1.13;;;;;;;10.39;100.00;103045.94;6060131;23;20466;-67
2023/05/03 10:26:56;;;;;;;5.37;1.20;;;;;;;10.55;100.00;103048.00;6057022;23;20383;-67
2023/05/03 10:29:34;;;;;;;3.00;1.00;;;;;;;10.63;100.00;103065.06;6061250;23;20428;-67
2023/05/03 10:32:04;;;;;;;2.70;1.00;;;;;;;10.59;100.00;103055.63;6057994;23;20182;-68
2023/05/03 10:34:31;;;;;;;1.67;0.80;;;;;;;10.55;100.00;103056.91;6059768;23;20427;-68
2023/05/03 10:37:00;;;;;;;6.20;2.00;;;;;;;10.55;100.00;103062.25;6059033;23;20391;-68
2023/05/03 10:39:27;;;;;;;2.87;0.83;;;;;;;10.61;100.00;103075.09;6061302;23;20467;-68
2023/05/03 10:42:03;;;;;;;2.30;1.10;;;;;;;10.60;100.00;103054.63;6057603;23;20376;-68
2023/05/03 10:44:47;;;;;;;1.87;0.90;;;;;;;10.79;100.00;103077.91;6059753;23;20367;-68
2023/05/03 10:47:17;;;;;;;2.07;0.90;;;;;;;10.69;100.00;103065.50;6063015;23;20372;-68
2023/05/03 10:49:43;;;;;;;4.33;1.03;;;;;;;10.88;100.00;103065.44;6064495;23;20414;-67
2023/05/03 10:52:37;;;;;;;3.43;0.80;;;;;;;10.94;100.00;103062.16;6063967;23;20462;-69
2023/05/03 10:55:09;;;;;;;1.70;0.80;;;;;;;10.99;100.00;103061.72;6063590;23;20393;-71
2023/05/03 10:57:37;;;;;;;2.83;1.00;;;;;;;11.17;100.00;103065.34;6059892;23;20375;-68
2023/05/03 11:00:12;;;;;;;2.43;1.20;;;;;;;11.09;100.00;103051.78;6066604;23;20406;-68
2023/05/03 11:02:54;;;;;;;3.17;1.07;;;;;;;11.18;100.00;103067.00;6065470;23;20395;-68
2023/05/03 11:05:20;;;;;;;2.50;1.17;;;;;;;11.02;100.00;103056.03;6064899;23;20403;-68
2023/05/03 11:07:45;;;;;;;3.10;1.37;;;;;;;10.78;100.00;103065.47;6062929;23;20407;-68
2023/05/03 11:10:16;;;;;;;2.40;1.10;;;;;;;10.84;100.00;103045.25;6063337;23;20391;-69
2023/05/03 11:12:41;;;;;;;2.63;1.00;;;;;;;10.66;100.00;103007.59;6064962;23;20175;-69
2023/05/03 11:15:07;;;;;;;1.70;0.77;;;;;;;10.54;100.00;103006.91;6065262;23;20490;-69
2023/05/03 11:17:32;;;;;;;3.23;1.00;;;;;;;10.44;100.00;102983.78;6063084;23;20166;-68
2023/05/03 11:19:58;;;;;;;3.40;1.00;;;;;;;10.67;100.00;103029.91;6063633;23;20437;-68
2023/05/03 11:22:23;;;;;;;1.73;0.90;;;;;;;10.78;100.00;103053.88;6063987;23;20158;-69
2023/05/03 11:24:50;;;;;;;2.10;1.17;;;;;;;10.73;100.00;103040.03;6064343;23;20191;-68
2023/05/03 11:27:23;;;;;;;2.03;1.00;;;;;;;10.87;100.00;103066.41;6062517;23;20246;-69